createdAt,value
2018-09-11T00:01:10.741Z,6.03
2018-09-11T00:03:38.017Z,6.07
2018-09-11T00:06:05.470Z,6.07
2018-09-11T00:08:32.732Z,5.97
2018-09-11T00:11:00.001Z,5.90
2018-09-11T00:13:27.278Z,5.77
2018-09-11T00:15:54.541Z,5.83
2018-09-11T00:18:21.829Z,5.63
2018-09-11T00:20:49.077Z,6.23
2018-09-11T00:23:16.666Z,5.93
2018-09-11T00:25:43.913Z,7.20
2018-09-11T00:28:11.173Z,5.80
2018-09-11T00:30:38.803Z,6.20
2018-09-11T00:33:06.077Z,6.50
2018-09-11T00:35:33.350Z,5.67
2018-09-11T00:38:00.617Z,5.50
2018-09-11T00:40:27.894Z,6.10
2018-09-11T00:42:55.260Z,6.27
2018-09-11T00:45:22.670Z,5.40
2018-09-11T00:47:50.054Z,4.90
2018-09-11T00:50:17.557Z,5.40
2018-09-11T00:52:44.813Z,6.13
2018-09-11T00:55:12.281Z,5.93
2018-09-11T00:57:39.545Z,5.60
2018-09-11T01:00:07.137Z,5.97
2018-09-11T01:02:34.428Z,6.00
2018-09-11T01:05:01.734Z,5.97
2018-09-11T01:07:29.241Z,6.27
2018-09-11T01:09:56.502Z,6.20
2018-09-11T01:12:23.765Z,6.30
2018-09-11T01:14:51.033Z,6.27
2018-09-11T01:17:18.365Z,5.80
2018-09-11T01:19:46.289Z,5.47
2018-09-11T01:22:13.585Z,5.43
2018-09-11T01:24:40.866Z,5.80
2018-09-11T01:27:08.334Z,6.50
2018-09-11T01:29:35.634Z,6.63
2018-09-11T01:32:02.889Z,6.00
2018-09-11T01:34:30.301Z,5.17
2018-09-11T01:36:57.583Z,5.57
2018-09-11T01:39:25.725Z,5.40
2018-09-11T01:41:52.989Z,5.13
2018-09-11T01:44:20.257Z,5.90
2018-09-11T01:46:47.549Z,5.50
2018-09-11T01:49:14.822Z,5.13
2018-09-11T01:51:42.097Z,5.23
2018-09-11T01:54:09.377Z,5.50
2018-09-11T01:56:36.652Z,5.67
2018-09-11T01:59:03.862Z,5.60
2018-09-11T02:01:31.138Z,6.47
2018-09-11T02:03:59.926Z,5.03
2018-09-11T02:06:27.160Z,5.53
2018-09-11T02:08:55.752Z,6.13
2018-09-11T02:11:22.985Z,6.60
2018-09-11T02:13:50.197Z,5.40
2018-09-11T02:16:17.413Z,6.17
2018-09-11T02:18:45.651Z,5.60
2018-09-11T02:21:12.872Z,5.80
2018-09-11T02:23:40.078Z,5.70
2018-09-11T02:26:07.297Z,5.80
2018-09-11T02:28:34.497Z,5.37
2018-09-11T02:31:01.718Z,5.17
2018-09-11T02:33:28.913Z,5.57
2018-09-11T02:35:56.178Z,5.60
2018-09-11T02:38:23.372Z,5.93
2018-09-11T02:40:50.754Z,5.80
2018-09-11T02:43:18.043Z,5.60
2018-09-11T02:45:45.303Z,4.47
2018-09-11T02:48:12.526Z,5.70
2018-09-11T02:50:39.861Z,4.67
2018-09-11T02:53:07.069Z,5.43
2018-09-11T02:55:34.269Z,6.50
2018-09-11T02:58:01.577Z,6.80
2018-09-11T03:00:29.883Z,6.67
2018-09-11T03:02:57.231Z,6.87
2018-09-11T03:05:24.509Z,6.80
2018-09-11T03:07:51.897Z,6.17
2018-09-11T03:10:19.402Z,6.17
2018-09-11T03:12:46.719Z,5.73
2018-09-11T03:15:13.998Z,5.90
2018-09-11T03:17:42.918Z,6.00
2018-09-11T03:20:10.213Z,5.87
2018-09-11T03:22:37.490Z,5.87
2018-09-11T03:25:04.786Z,6.17
2018-09-11T03:27:32.061Z,7.27
2018-09-11T03:29:59.568Z,6.17
2018-09-11T03:32:26.836Z,6.67
2018-09-11T03:34:54.090Z,6.17
2018-09-11T03:37:21.450Z,6.50
2018-09-11T03:39:48.765Z,5.87
2018-09-11T03:42:16.032Z,6.60
2018-09-11T03:44:43.314Z,6.50
2018-09-11T03:47:10.580Z,5.90
2018-09-11T03:49:37.914Z,5.20
2018-09-11T03:52:05.237Z,4.90
2018-09-11T03:54:32.638Z,6.00
2018-09-11T03:56:59.958Z,6.80
2018-09-11T03:59:27.201Z,6.20
2018-09-11T04:01:54.410Z,5.77
2018-09-11T04:04:21.617Z,7.03
2018-09-11T04:06:48.824Z,6.20
2018-09-11T04:09:16.044Z,6.17
2018-09-11T04:11:43.655Z,6.27
2018-09-11T04:14:11.066Z,6.80
2018-09-11T04:16:38.365Z,6.37
2018-09-11T04:19:05.869Z,6.30
2018-09-11T04:21:34.938Z,6.33
2018-09-11T04:24:02.215Z,7.50
2018-09-11T04:26:29.461Z,6.50
2018-09-11T04:28:56.718Z,6.13
2018-09-11T04:31:23.946Z,7.30
2018-09-11T04:33:51.337Z,7.73
2018-09-11T04:36:18.571Z,6.30
2018-09-11T04:38:45.778Z,6.20
2018-09-11T04:41:13.105Z,7.03
2018-09-11T04:43:43.983Z,6.90
2018-09-11T04:46:12.025Z,5.90
2018-09-11T04:48:40.226Z,6.67
2018-09-11T04:51:09.594Z,5.90
2018-09-11T04:53:37.081Z,6.33
2018-09-11T04:56:04.384Z,6.60
2018-09-11T04:58:31.573Z,5.80
2018-09-11T05:00:58.932Z,7.30
2018-09-11T05:03:26.129Z,7.10
2018-09-11T05:05:53.374Z,6.10
2018-09-11T05:08:20.653Z,6.40
2018-09-11T05:10:47.897Z,6.20
2018-09-11T05:13:17.329Z,6.43
2018-09-11T05:15:44.656Z,5.47
2018-09-11T05:18:11.858Z,6.03
2018-09-11T05:20:39.106Z,6.50
2018-09-11T05:23:06.509Z,6.17
2018-09-11T05:25:35.526Z,6.07
2018-09-11T05:28:02.734Z,5.83
2018-09-11T05:30:29.957Z,5.90
2018-09-11T05:32:57.153Z,6.50
2018-09-11T05:35:24.377Z,6.40
2018-09-11T05:37:51.573Z,6.50
2018-09-11T05:40:18.773Z,5.90
2018-09-11T05:42:47.755Z,6.13
2018-09-11T05:45:14.962Z,6.50
2018-09-11T05:47:43.906Z,7.60
2018-09-11T05:50:11.178Z,6.53
2018-09-11T05:52:39.213Z,6.93
2018-09-11T05:55:06.510Z,6.53
2018-09-11T05:57:33.828Z,7.03
2018-09-11T06:00:02.414Z,7.13
2018-09-11T06:02:29.749Z,7.23
2018-09-11T06:04:58.778Z,6.97
2018-09-11T06:07:26.143Z,7.07
2018-09-11T06:09:53.398Z,7.80
2018-09-11T06:12:20.691Z,7.27
2018-09-11T06:14:47.949Z,7.57
2018-09-11T06:17:15.225Z,7.40
2018-09-11T06:19:42.477Z,7.07
2018-09-11T06:22:11.106Z,7.60
2018-09-11T06:24:38.353Z,7.43
2018-09-11T06:27:05.649Z,8.50
2018-09-11T06:29:32.918Z,7.83
2018-09-11T06:32:00.218Z,6.80
2018-09-11T06:34:27.488Z,7.90
2018-09-11T06:36:54.798Z,8.37
2018-09-11T06:39:22.095Z,8.80
2018-09-11T06:41:49.335Z,7.73
2018-09-11T06:44:16.602Z,7.20
2018-09-11T06:46:43.921Z,7.30
2018-09-11T06:49:12.306Z,7.80
2018-09-11T06:51:39.573Z,8.27
2018-09-11T06:54:06.961Z,7.60
2018-09-11T06:56:34.233Z,7.60
2018-09-11T06:59:01.527Z,7.50
2018-09-11T07:01:28.840Z,7.77
2018-09-11T07:03:56.125Z,7.70
2018-09-11T07:06:23.421Z,7.63
2018-09-11T07:08:51.985Z,7.50
2018-09-11T07:11:19.294Z,8.17
2018-09-11T07:13:46.911Z,7.67
2018-09-11T07:16:16.039Z,6.20
2018-09-11T07:18:43.363Z,6.90
2018-09-11T07:21:10.650Z,6.20
2018-09-11T07:23:37.918Z,7.17
2018-09-11T07:26:05.454Z,6.50
2018-09-11T07:28:32.729Z,6.87
2018-09-11T07:31:03.159Z,6.50
2018-09-11T07:33:30.498Z,6.90
2018-09-11T07:35:57.769Z,6.30
2018-09-11T07:38:25.044Z,6.23
2018-09-11T07:40:52.326Z,7.40
2018-09-11T07:43:19.613Z,6.73
2018-09-11T07:45:46.865Z,6.43
2018-09-11T07:48:14.081Z,6.50
2018-09-11T07:50:41.292Z,6.50
2018-09-11T07:53:08.518Z,6.40
2018-09-11T07:55:35.716Z,6.20
2018-09-11T07:58:03.100Z,6.67
2018-09-11T08:00:30.317Z,5.17
2018-09-11T08:02:57.661Z,7.37
2018-09-11T08:05:25.405Z,6.40
2018-09-11T08:07:52.709Z,5.40
2018-09-11T08:10:19.978Z,4.73
2018-09-11T08:12:47.521Z,5.47
2018-09-11T08:15:14.924Z,5.20
2018-09-11T08:17:42.189Z,4.70
2018-09-11T08:20:09.501Z,4.33
2018-09-11T08:22:36.774Z,4.53
2018-09-11T08:25:04.038Z,4.87
2018-09-11T08:27:31.316Z,4.87
2018-09-11T08:29:58.637Z,4.13
2018-09-11T08:32:27.590Z,3.63
2018-09-11T08:34:54.837Z,4.67
2018-09-11T08:37:22.129Z,4.23
2018-09-11T08:39:49.396Z,3.73
2018-09-11T08:42:16.662Z,3.70
2018-09-11T08:44:43.930Z,4.03
2018-09-11T08:47:11.201Z,3.73
2018-09-11T08:49:38.458Z,3.90
2018-09-11T08:52:06.557Z,3.70
2018-09-11T08:54:33.821Z,3.73
2018-09-11T08:57:01.111Z,3.23
2018-09-11T08:59:28.326Z,3.83
2018-09-11T09:01:57.386Z,3.00
2018-09-11T09:04:24.814Z,3.57
2018-09-11T09:06:52.051Z,2.70
2018-09-11T09:09:19.245Z,3.43
2018-09-11T09:11:46.469Z,3.20
2018-09-11T09:14:13.662Z,3.63
2018-09-11T09:16:40.910Z,3.80
2018-09-11T09:19:08.125Z,3.00
2018-09-11T09:21:35.337Z,3.23
2018-09-11T09:24:02.549Z,3.60
2018-09-11T09:26:30.610Z,2.27
2018-09-11T09:28:57.814Z,3.10
2018-09-11T09:31:25.820Z,2.97
2018-09-11T09:33:53.043Z,2.77
2018-09-11T09:36:20.931Z,2.83
2018-09-11T09:38:48.138Z,3.00
2018-09-11T09:41:16.458Z,2.93
2018-09-11T09:43:43.677Z,2.43
2018-09-11T09:46:10.893Z,2.90
2018-09-11T09:48:38.125Z,3.53
2018-09-11T09:51:05.275Z,3.00
2018-09-11T09:53:32.497Z,2.90
2018-09-11T09:55:59.721Z,2.87
2018-09-11T09:58:27.250Z,3.40
2018-09-11T10:01:01.123Z,3.10
2018-09-11T10:03:28.366Z,3.60
2018-09-11T10:05:55.653Z,3.07
2018-09-11T10:08:22.861Z,3.17
2018-09-11T10:10:50.050Z,2.80
2018-09-11T10:13:17.257Z,3.20
2018-09-11T10:15:44.473Z,2.67
2018-09-11T10:18:11.681Z,2.90
2018-09-11T10:20:38.873Z,3.17
2018-09-11T10:23:06.107Z,3.10
2018-09-11T10:25:33.330Z,2.67
2018-09-11T10:28:00.570Z,2.33
2018-09-11T10:30:27.806Z,2.57
2018-09-11T10:32:55.033Z,3.20
2018-09-11T10:35:22.506Z,3.10
2018-09-11T10:37:49.762Z,2.70
2018-09-11T10:40:16.964Z,2.83
2018-09-11T10:42:44.184Z,3.10
2018-09-11T10:45:11.409Z,2.70
2018-09-11T10:47:42.942Z,3.10
2018-09-11T10:50:10.150Z,2.20
2018-09-11T10:52:37.386Z,2.57
2018-09-11T10:55:04.833Z,2.33
2018-09-11T10:57:32.146Z,2.00
2018-09-11T10:59:59.400Z,3.07
2018-09-11T11:02:26.686Z,3.30
2018-09-11T11:04:53.941Z,2.67
2018-09-11T11:07:21.277Z,2.80
2018-09-11T11:09:48.566Z,3.10
2018-09-11T11:12:15.852Z,2.53
2018-09-11T11:14:43.609Z,2.47
2018-09-11T11:17:11.063Z,2.13
2018-09-11T11:19:38.201Z,3.33
2018-09-11T11:22:07.086Z,2.60
2018-09-11T11:24:34.389Z,2.47
2018-09-11T11:27:01.734Z,2.47
2018-09-11T11:29:28.949Z,2.70
2018-09-11T11:31:56.225Z,2.83
2018-09-11T11:34:23.515Z,2.50
2018-09-11T11:36:50.908Z,2.23
2018-09-11T11:39:18.058Z,2.37
2018-09-11T11:41:45.374Z,2.90
2018-09-11T11:44:12.591Z,2.20
2018-09-11T11:46:40.595Z,2.60
2018-09-11T11:49:07.870Z,2.40
2018-09-11T11:51:35.202Z,2.90
2018-09-11T11:54:03.462Z,2.50
2018-09-11T11:56:30.721Z,2.90
2018-09-11T11:58:57.949Z,3.70
2018-09-11T12:01:25.333Z,2.80
2018-09-11T12:03:52.518Z,2.30
2018-09-11T12:06:19.726Z,2.70
2018-09-11T12:08:46.942Z,2.73
2018-09-11T12:11:14.165Z,3.10
2018-09-11T12:13:41.387Z,3.00
2018-09-11T12:16:08.644Z,2.87
2018-09-11T12:18:35.830Z,2.47
2018-09-11T12:21:03.049Z,2.30
2018-09-11T12:23:30.298Z,3.17
2018-09-11T12:25:57.509Z,2.93
2018-09-11T12:28:24.985Z,3.00
2018-09-11T12:30:52.311Z,3.10
2018-09-11T12:33:19.590Z,2.20
2018-09-11T12:35:46.790Z,2.63
2018-09-11T12:38:14.014Z,2.23
2018-09-11T12:40:41.240Z,2.60
2018-09-11T12:43:10.498Z,2.13
2018-09-11T12:45:37.742Z,2.90
2018-09-11T12:48:05.627Z,2.80
2018-09-11T12:50:32.393Z,3.20
2018-09-11T12:53:00.946Z,2.77
2018-09-11T12:55:28.145Z,2.90
2018-09-11T12:57:55.365Z,2.80
2018-09-11T13:00:22.569Z,2.30
2018-09-11T13:02:49.794Z,2.30
2018-09-11T13:05:16.990Z,3.10
2018-09-11T13:07:44.218Z,2.70
2018-09-11T13:10:11.443Z,2.73
2018-09-11T13:12:39.726Z,3.40
2018-09-11T13:15:06.991Z,2.70
2018-09-11T13:17:34.157Z,2.90
2018-09-11T13:20:01.364Z,2.90
2018-09-11T13:22:28.582Z,2.80
2018-09-11T13:24:55.793Z,3.27
2018-09-11T13:27:24.002Z,2.80
2018-09-11T13:29:51.270Z,2.93
2018-09-11T13:32:18.477Z,3.57
2018-09-11T13:34:45.704Z,2.80
2018-09-11T13:37:12.909Z,3.33
2018-09-11T13:39:41.597Z,3.50
2018-09-11T13:42:08.835Z,2.77
2018-09-11T13:44:36.042Z,3.20
2018-09-11T13:47:04.771Z,3.20
2018-09-11T13:49:31.943Z,3.40
2018-09-11T13:51:59.163Z,3.10
2018-09-11T13:54:26.657Z,3.07
2018-09-11T13:56:53.869Z,3.13
2018-09-11T13:59:21.090Z,3.27
2018-09-11T14:01:48.345Z,2.43
2018-09-11T14:04:16.455Z,2.87
2018-09-11T14:06:43.662Z,3.27
2018-09-11T14:09:13.279Z,2.93
2018-09-11T14:11:41.763Z,3.50
2018-09-11T14:14:09.153Z,3.20
2018-09-11T14:16:36.357Z,3.10
2018-09-11T14:19:04.635Z,3.03
2018-09-11T14:21:31.927Z,3.10
2018-09-11T14:23:59.150Z,3.53
2018-09-11T14:26:26.402Z,4.07
2018-09-11T14:28:53.633Z,6.17
2018-09-11T14:31:20.852Z,3.80
2018-09-11T14:33:48.078Z,3.23
2018-09-11T14:36:15.287Z,3.37
2018-09-11T14:38:42.544Z,3.30
2018-09-11T14:41:09.862Z,3.47
2018-09-11T14:43:37.177Z,3.97
2018-09-11T14:46:04.430Z,3.60
2018-09-11T14:48:31.737Z,4.10
2018-09-11T14:50:59.037Z,3.10
2018-09-11T14:53:26.254Z,3.20
2018-09-11T14:55:53.546Z,2.97
2018-09-11T14:58:20.813Z,3.77
2018-09-11T15:00:48.096Z,3.47
2018-09-11T15:03:15.461Z,3.23
2018-09-11T15:05:42.741Z,3.17
2018-09-11T15:08:10.022Z,3.20
2018-09-11T15:10:37.277Z,3.00
2018-09-11T15:13:04.579Z,3.67
2018-09-11T15:15:31.929Z,3.00
2018-09-11T15:17:59.214Z,2.93
2018-09-11T15:20:26.534Z,3.00
2018-09-11T15:22:54.084Z,3.10
2018-09-11T15:25:21.357Z,3.13
2018-09-11T15:27:48.637Z,2.90
2018-09-11T15:30:15.909Z,3.50
2018-09-11T15:32:43.205Z,3.10
2018-09-11T15:35:10.521Z,2.90
2018-09-11T15:37:37.799Z,3.30
2018-09-11T15:40:05.146Z,3.10
2018-09-11T15:42:32.439Z,4.07
2018-09-11T15:44:59.729Z,3.40
2018-09-11T15:47:27.118Z,3.00
2018-09-11T15:49:54.409Z,3.30
2018-09-11T15:52:21.665Z,3.60
2018-09-11T15:54:48.942Z,3.20
2018-09-11T15:57:16.220Z,4.03
2018-09-11T15:59:43.494Z,3.53
2018-09-11T16:02:10.781Z,3.67
2018-09-11T16:04:38.053Z,3.60
2018-09-11T16:07:05.389Z,3.13
2018-09-11T16:09:32.741Z,3.70
2018-09-11T16:12:00.010Z,3.00
2018-09-11T16:14:27.301Z,3.00
2018-09-11T16:16:54.550Z,3.00
2018-09-11T16:19:21.821Z,3.10
2018-09-11T16:21:49.146Z,3.00
2018-09-11T16:24:16.451Z,3.40
2018-09-11T16:26:43.722Z,3.13
2018-09-11T16:29:11.017Z,3.47
2018-09-11T16:31:38.574Z,3.70
2018-09-11T16:34:05.884Z,3.33
2018-09-11T16:36:33.159Z,2.87
2018-09-11T16:39:00.446Z,3.13
2018-09-11T16:41:27.724Z,3.03
2018-09-11T16:43:55.013Z,3.13
2018-09-11T16:46:22.285Z,3.30
2018-09-11T16:48:49.567Z,3.23
2018-09-11T16:51:16.893Z,3.30
2018-09-11T16:53:44.203Z,3.23
2018-09-11T16:56:11.457Z,3.03
2018-09-11T16:58:38.694Z,4.00
2018-09-11T17:01:05.905Z,3.00
2018-09-11T17:03:33.118Z,2.80
2018-09-11T17:06:00.323Z,2.87
2018-09-11T17:08:27.545Z,3.20
2018-09-11T17:10:54.773Z,3.07
2018-09-11T17:13:22.007Z,2.73
2018-09-11T17:15:49.363Z,3.37
2018-09-11T17:18:16.557Z,2.70
2018-09-11T17:20:43.805Z,3.40
2018-09-11T17:23:11.033Z,3.50
2018-09-11T17:25:38.279Z,3.43
2018-09-11T17:28:05.478Z,4.30
2018-09-11T17:30:32.685Z,3.63
2018-09-11T17:32:59.904Z,3.27
2018-09-11T17:35:27.438Z,4.23
2018-09-11T17:37:54.662Z,3.53
2018-09-11T17:40:21.938Z,4.00
2018-09-11T17:42:49.188Z,3.60
2018-09-11T17:45:16.350Z,3.80
2018-09-11T17:47:43.665Z,4.10
2018-09-11T17:50:10.889Z,3.57
2018-09-11T17:52:38.101Z,3.90
2018-09-11T17:55:05.406Z,3.60
2018-09-11T17:57:32.601Z,3.90
2018-09-11T17:59:59.823Z,3.50
2018-09-11T18:02:28.025Z,3.40
2018-09-11T18:04:55.256Z,3.50
2018-09-11T18:07:22.541Z,3.50
2018-09-11T18:09:49.758Z,4.13
2018-09-11T18:12:17.201Z,3.67
2018-09-11T18:14:44.421Z,3.70
2018-09-11T18:17:11.621Z,3.70
2018-09-11T18:19:38.857Z,4.07
2018-09-11T18:22:06.073Z,3.47
2018-09-11T18:24:33.325Z,3.67
2018-09-11T18:27:00.602Z,3.37
2018-09-11T18:29:27.911Z,3.60
2018-09-11T18:31:55.280Z,3.73
2018-09-11T18:34:22.547Z,4.20
2018-09-11T18:36:49.839Z,3.93
2018-09-11T18:39:17.101Z,3.57
2018-09-11T18:41:44.382Z,4.23
2018-09-11T18:44:11.664Z,4.53
2018-09-11T18:46:38.933Z,3.83
2018-09-11T18:49:06.925Z,3.90
2018-09-11T18:51:34.295Z,4.33
2018-09-11T18:54:01.457Z,3.20
2018-09-11T18:56:28.727Z,4.17
2018-09-11T18:58:55.964Z,4.67
2018-09-11T19:01:23.283Z,3.90
2018-09-11T19:03:50.502Z,4.77
2018-09-11T19:06:17.745Z,5.27
2018-09-11T19:08:44.954Z,4.30
2018-09-11T19:11:12.912Z,3.73
2018-09-11T19:13:40.061Z,4.03
2018-09-11T19:16:07.303Z,3.97
2018-09-11T19:18:34.545Z,3.70
2018-09-11T19:21:01.757Z,3.77
2018-09-11T19:23:28.954Z,3.77
2018-09-11T19:25:56.211Z,3.83
2018-09-11T19:28:23.433Z,4.23
2018-09-11T19:30:50.669Z,4.57
2018-09-11T19:33:17.909Z,4.10
2018-09-11T19:35:45.109Z,3.97
2018-09-11T19:38:12.330Z,4.60
2018-09-11T19:40:39.609Z,3.90
2018-09-11T19:43:06.823Z,4.03
2018-09-11T19:45:34.235Z,4.93
2018-09-11T19:48:01.514Z,3.83
2018-09-11T19:50:28.873Z,3.87
2018-09-11T19:52:56.198Z,4.80
2018-09-11T19:55:23.430Z,4.50
2018-09-11T19:57:50.842Z,4.33
2018-09-11T20:00:18.189Z,4.37
2018-09-11T20:02:45.458Z,3.70
2018-09-11T20:05:12.732Z,4.40
2018-09-11T20:07:40.005Z,4.77
2018-09-11T20:10:07.410Z,5.90
2018-09-11T20:12:34.669Z,4.77
2018-09-11T20:15:02.058Z,4.33
2018-09-11T20:17:29.429Z,4.20
2018-09-11T20:19:56.774Z,5.53
2018-09-11T20:22:24.046Z,4.70
2018-09-11T20:24:51.319Z,4.27
2018-09-11T20:27:18.734Z,4.27
2018-09-11T20:29:46.026Z,4.43
2018-09-11T20:32:13.291Z,5.80
2018-09-11T20:34:40.598Z,4.43
2018-09-11T20:37:08.053Z,4.93
2018-09-11T20:39:35.456Z,4.73
2018-09-11T20:42:02.834Z,4.10
2018-09-11T20:44:30.109Z,5.33
2018-09-11T20:46:57.527Z,4.53
2018-09-11T20:49:25.052Z,4.30
2018-09-11T20:51:52.401Z,4.43
2018-09-11T20:54:19.633Z,3.97
2018-09-11T20:56:46.905Z,4.03
2018-09-11T20:59:14.114Z,4.63
2018-09-11T21:01:41.473Z,4.60
2018-09-11T21:04:08.799Z,4.40
2018-09-11T21:06:36.176Z,4.07
2018-09-11T21:09:05.201Z,3.73
2018-09-11T21:11:32.515Z,4.97
2018-09-11T21:13:59.734Z,4.13
2018-09-11T21:16:26.978Z,4.17
2018-09-11T21:18:54.305Z,4.00
2018-09-11T21:21:21.633Z,4.43
2018-09-11T21:23:48.890Z,3.83
2018-09-11T21:26:16.097Z,3.90
2018-09-11T21:28:43.303Z,4.30
2018-09-11T21:31:10.745Z,4.53
2018-09-11T21:33:37.955Z,4.23
2018-09-11T21:36:05.341Z,4.50
2018-09-11T21:38:32.686Z,4.07
2018-09-11T21:40:59.917Z,4.83
2018-09-11T21:43:27.241Z,4.67
2018-09-11T21:45:54.450Z,4.50
2018-09-11T21:48:21.662Z,4.30
2018-09-11T21:50:48.909Z,4.70
2018-09-11T21:53:16.427Z,4.93
2018-09-11T21:55:43.646Z,5.40
2018-09-11T21:58:11.049Z,4.70
2018-09-11T22:00:42.958Z,4.30
2018-09-11T22:03:10.215Z,4.53
2018-09-11T22:05:37.511Z,4.87
2018-09-11T22:08:04.746Z,4.43
2018-09-11T22:10:32.023Z,4.47
2018-09-11T22:12:59.359Z,4.40
2018-09-11T22:15:26.689Z,4.53
2018-09-11T22:17:53.941Z,4.83
2018-09-11T22:20:21.229Z,4.27
2018-09-11T22:22:48.500Z,6.93
2018-09-11T22:25:15.781Z,7.83
2018-09-11T22:27:43.060Z,11.60
2018-09-11T22:30:10.338Z,13.20
2018-09-11T22:32:37.653Z,16.20
2018-09-11T22:35:04.989Z,8.67
2018-09-11T22:37:32.289Z,5.33
2018-09-11T22:39:59.686Z,4.70
2018-09-11T22:42:27.044Z,5.23
2018-09-11T22:44:54.318Z,7.97
2018-09-11T22:47:21.597Z,12.80
2018-09-11T22:49:48.863Z,6.40
2018-09-11T22:52:16.162Z,6.83
2018-09-11T22:54:43.429Z,6.67
2018-09-11T22:57:10.741Z,5.80
2018-09-11T22:59:38.010Z,5.80
2018-09-11T23:02:05.313Z,6.30
2018-09-11T23:04:32.610Z,4.63
2018-09-11T23:06:59.885Z,4.70
2018-09-11T23:09:27.133Z,5.10
2018-09-11T23:11:54.401Z,5.70
2018-09-11T23:14:21.654Z,6.40
2018-09-11T23:16:48.921Z,6.43
2018-09-11T23:19:16.191Z,10.30
2018-09-11T23:21:43.493Z,20.63
2018-09-11T23:24:10.813Z,17.03
2018-09-11T23:26:38.233Z,5.90
2018-09-11T23:29:05.510Z,4.60
2018-09-11T23:31:32.837Z,5.13
2018-09-11T23:34:00.121Z,4.70
2018-09-11T23:36:27.386Z,5.13
2018-09-11T23:38:54.733Z,5.23
2018-09-11T23:41:22.050Z,4.93
2018-09-11T23:43:49.354Z,5.10
2018-09-11T23:46:16.621Z,5.67
2018-09-11T23:48:43.913Z,4.93
2018-09-11T23:51:11.193Z,5.37
2018-09-11T23:53:38.454Z,4.37
2018-09-11T23:56:05.721Z,3.90
2018-09-11T23:58:32.954Z,3.83
